sensor_id;sensor_type;location;lat;lon;timestamp;pressure;altitude;pressure_sealevel;temperature;humidity
5413;BME280;2729;50.056;8.678;2022-12-08T00:01:41;99860.97;;;5.39;100.00
5413;BME280;2729;50.056;8.678;2022-12-08T00:04:07;99867.13;;;5.26;100.00
5413;BME280;2729;50.056;8.678;2022-12-08T00:06:35;99863.63;;;5.32;100.00
5413;BME280;2729;50.056;8.678;2022-12-08T00:09:28;99860.13;;;5.37;100.00
5413;BME280;2729;50.056;8.678;2022-12-08T00:12:02;99856.78;;;5.28;100.00
5413;BME280;2729;50.056;8.678;2022-12-08T00:14:31;99848.09;;;5.33;100.00
5413;BME280;2729;50.056;8.678;2022-12-08T00:16:58;99846.44;;;5.26;100.00
5413;BME280;2729;50.056;8.678;2022-12-08T00:19:25;99846.41;;;5.29;100.00
5413;BME280;2729;50.056;8.678;2022-12-08T00:21:52;99847.31;;;5.25;100.00
5413;BME280;2729;50.056;8.678;2022-12-08T00:24:19;99849.00;;;5.28;100.00
5413;BME280;2729;50.056;8.678;2022-12-08T00:26:46;99849.84;;;5.30;100.00
5413;BME280;2729;50.056;8.678;2022-12-08T00:29:12;99848.06;;;5.36;100.00
5413;BME280;2729;50.056;8.678;2022-12-08T00:31:38;99836.72;;;5.48;100.00
5413;BME280;2729;50.056;8.678;2022-12-08T00:34:04;99839.31;;;5.46;100.00
5413;BME280;2729;50.056;8.678;2022-12-08T00:36:31;99843.59;;;5.49;100.00
5413;BME280;2729;50.056;8.678;2022-12-08T00:38:57;99836.50;;;5.66;100.00
5413;BME280;2729;50.056;8.678;2022-12-08T00:41:24;99835.75;;;5.55;100.00
5413;BME280;2729;50.056;8.678;2022-12-08T00:44:11;99830.69;;;5.47;100.00
5413;BME280;2729;50.056;8.678;2022-12-08T00:46:38;99827.84;;;5.69;100.00
5413;BME280;2729;50.056;8.678;2022-12-08T00:49:05;99826.25;;;5.57;100.00
5413;BME280;2729;50.056;8.678;2022-12-08T00:51:32;99829.91;;;5.39;100.00
5413;BME280;2729;50.056;8.678;2022-12-08T00:53:58;99827.97;;;5.57;100.00
5413;BME280;2729;50.056;8.678;2022-12-08T00:56:25;99830.47;;;5.66;100.00
5413;BME280;2729;50.056;8.678;2022-12-08T00:58:51;99828.75;;;5.63;100.00
5413;BME280;2729;50.056;8.678;2022-12-08T01:01:18;99820.03;;;5.70;100.00
5413;BME280;2729;50.056;8.678;2022-12-08T01:03:44;99829.72;;;5.56;100.00
5413;BME280;2729;50.056;8.678;2022-12-08T01:06:10;99833.00;;;5.69;100.00
5413;BME280;2729;50.056;8.678;2022-12-08T01:08:37;99829.63;;;5.64;100.00
5413;BME280;2729;50.056;8.678;2022-12-08T01:11:11;99833.91;;;5.65;100.00
5413;BME280;2729;50.056;8.678;2022-12-08T01:13:38;99828.56;;;5.78;100.00
5413;BME280;2729;50.056;8.678;2022-12-08T01:16:05;99827.78;;;5.73;100.00
5413;BME280;2729;50.056;8.678;2022-12-08T01:18:31;99820.25;;;5.55;100.00
5413;BME280;2729;50.056;8.678;2022-12-08T01:21:04;99824.44;;;5.65;100.00
5413;BME280;2729;50.056;8.678;2022-12-08T01:23:32;99825.41;;;5.55;100.00
5413;BME280;2729;50.056;8.678;2022-12-08T01:26:05;99819.22;;;5.67;100.00
5413;BME280;2729;50.056;8.678;2022-12-08T01:28:32;99816.63;;;5.67;100.00
5413;BME280;2729;50.056;8.678;2022-12-08T01:30:59;99821.81;;;5.68;100.00
5413;BME280;2729;50.056;8.678;2022-12-08T01:33:25;99813.13;;;5.71;100.00
5413;BME280;2729;50.056;8.678;2022-12-08T01:35:52;99812.19;;;5.76;100.00
5413;BME280;2729;50.056;8.678;2022-12-08T01:38:18;99812.16;;;5.79;100.00
5413;BME280;2729;50.056;8.678;2022-12-08T01:40:44;99802.63;;;5.83;100.00
5413;BME280;2729;50.056;8.678;2022-12-08T01:43:16;99804.38;;;5.81;100.00
5413;BME280;2729;50.056;8.678;2022-12-08T01:45:43;99804.28;;;5.89;100.00
5413;BME280;2729;50.056;8.678;2022-12-08T01:48:13;99803.34;;;5.96;100.00
5413;BME280;2729;50.056;8.678;2022-12-08T01:50:42;99805.22;;;5.81;100.00
5413;BME280;2729;50.056;8.678;2022-12-08T01:53:11;99800.88;;;5.84;100.00
5413;BME280;2729;50.056;8.678;2022-12-08T01:55:53;99800.78;;;5.93;100.00
5413;BME280;2729;50.056;8.678;2022-12-08T01:58:25;99797.59;;;5.72;100.00
5413;BME280;2729;50.056;8.678;2022-12-08T02:00:52;99794.03;;;5.81;100.00
5413;BME280;2729;50.056;8.678;2022-12-08T02:03:28;99794.06;;;5.78;100.00
5413;BME280;2729;50.056;8.678;2022-12-08T02:05:56;99784.53;;;5.80;100.00
5413;BME280;2729;50.056;8.678;2022-12-08T02:08:23;99789.69;;;5.81;100.00
5413;BME280;2729;50.056;8.678;2022-12-08T02:10:50;99784.34;;;5.95;100.00
5413;BME280;2729;50.056;8.678;2022-12-08T02:13:18;99777.44;;;5.96;100.00
5413;BME280;2729;50.056;8.678;2022-12-08T02:21:12;99779.16;;;5.97;100.00
5413;BME280;2729;50.056;8.678;2022-12-08T02:23:51;99775.16;;;5.71;100.00
5413;BME280;2729;50.056;8.678;2022-12-08T02:34:11;99762.84;;;5.89;100.00
5413;BME280;2729;50.056;8.678;2022-12-08T02:37:08;99769.69;;;5.94;100.00
5413;BME280;2729;50.056;8.678;2022-12-08T02:39:47;99764.50;;;5.96;100.00
5413;BME280;2729;50.056;8.678;2022-12-08T02:42:24;99762.03;;;5.85;100.00
5413;BME280;2729;50.056;8.678;2022-12-08T02:45:13;99766.19;;;5.98;100.00
5413;BME280;2729;50.056;8.678;2022-12-08T02:47:41;99760.34;;;5.82;100.00
5413;BME280;2729;50.056;8.678;2022-12-08T02:50:08;99761.03;;;5.97;100.00
5413;BME280;2729;50.056;8.678;2022-12-08T02:52:40;99764.44;;;5.99;100.00
5413;BME280;2729;50.056;8.678;2022-12-08T02:55:13;99757.66;;;5.89;100.00
5413;BME280;2729;50.056;8.678;2022-12-08T02:58:14;99758.00;;;5.63;100.00
5413;BME280;2729;50.056;8.678;2022-12-08T03:01:04;99759.41;;;5.87;100.00
5413;BME280;2729;50.056;8.678;2022-12-08T03:03:48;99750.44;;;5.49;100.00
5413;BME280;2729;50.056;8.678;2022-12-08T03:06:23;99745.81;;;5.71;100.00
5413;BME280;2729;50.056;8.678;2022-12-08T03:08:57;99744.91;;;5.75;100.00
5413;BME280;2729;50.056;8.678;2022-12-08T03:11:34;99732.34;;;5.47;100.00
5413;BME280;2729;50.056;8.678;2022-12-08T03:14:04;99735.56;;;5.65;100.00
5413;BME280;2729;50.056;8.678;2022-12-08T03:16:33;99742.38;;;5.70;100.00
5413;BME280;2729;50.056;8.678;2022-12-08T03:19:08;99738.88;;;5.74;100.00
5413;BME280;2729;50.056;8.678;2022-12-08T03:21:36;99742.28;;;5.76;100.00
5413;BME280;2729;50.056;8.678;2022-12-08T03:24:06;99738.94;;;5.70;100.00
5413;BME280;2729;50.056;8.678;2022-12-08T03:26:49;99735.34;;;5.80;100.00
5413;BME280;2729;50.056;8.678;2022-12-08T03:29:16;99731.03;;;5.79;100.00
5413;BME280;2729;50.056;8.678;2022-12-08T03:31:57;99726.06;;;5.65;100.00
5413;BME280;2729;50.056;8.678;2022-12-08T03:34:27;99722.53;;;5.71;100.00
5413;BME280;2729;50.056;8.678;2022-12-08T03:36:54;99715.81;;;5.58;100.00
5413;BME280;2729;50.056;8.678;2022-12-08T03:39:20;99717.72;;;5.45;100.00
5413;BME280;2729;50.056;8.678;2022-12-08T03:41:46;99716.81;;;5.47;100.00
5413;BME280;2729;50.056;8.678;2022-12-08T03:44:12;99715.00;;;5.53;100.00
5413;BME280;2729;50.056;8.678;2022-12-08T03:46:38;99713.00;;;5.73;100.00
5413;BME280;2729;50.056;8.678;2022-12-08T03:49:04;99713.09;;;5.67;100.00
5413;BME280;2729;50.056;8.678;2022-12-08T03:51:30;99720.03;;;5.65;100.00
5413;BME280;2729;50.056;8.678;2022-12-08T03:53:56;99707.03;;;5.68;100.00
5413;BME280;2729;50.056;8.678;2022-12-08T03:56:31;99704.34;;;5.75;100.00
5413;BME280;2729;50.056;8.678;2022-12-08T03:58:57;99701.84;;;5.69;100.00
5413;BME280;2729;50.056;8.678;2022-12-08T04:01:24;99704.28;;;5.78;100.00
5413;BME280;2729;50.056;8.678;2022-12-08T04:03:51;99699.22;;;5.71;100.00
5413;BME280;2729;50.056;8.678;2022-12-08T04:06:17;99693.16;;;5.73;100.00
5413;BME280;2729;50.056;8.678;2022-12-08T04:08:43;99698.50;;;5.61;100.00
5413;BME280;2729;50.056;8.678;2022-12-08T04:11:09;99702.56;;;5.79;100.00
5413;BME280;2729;50.056;8.678;2022-12-08T04:13:37;99688.69;;;5.83;100.00
5413;BME280;2729;50.056;8.678;2022-12-08T04:16:04;99696.47;;;5.81;100.00
5413;BME280;2729;50.056;8.678;2022-12-08T04:18:31;99692.22;;;5.79;100.00
5413;BME280;2729;50.056;8.678;2022-12-08T04:20:57;99696.56;;;5.75;100.00
5413;BME280;2729;50.056;8.678;2022-12-08T04:23:23;99692.16;;;5.82;100.00
5413;BME280;2729;50.056;8.678;2022-12-08T04:25:52;99692.22;;;5.77;100.00
5413;BME280;2729;50.056;8.678;2022-12-08T04:28:18;99689.56;;;5.82;100.00
5413;BME280;2729;50.056;8.678;2022-12-08T04:30:46;99700.06;;;5.73;100.00
5413;BME280;2729;50.056;8.678;2022-12-08T04:33:12;99688.75;;;5.78;100.00
5413;BME280;2729;50.056;8.678;2022-12-08T04:35:38;99689.06;;;5.57;100.00
5413;BME280;2729;50.056;8.678;2022-12-08T04:38:04;99688.97;;;5.65;100.00
5413;BME280;2729;50.056;8.678;2022-12-08T04:40:30;99685.44;;;5.70;100.00
5413;BME280;2729;50.056;8.678;2022-12-08T04:42:56;99672.22;;;5.89;100.00
5413;BME280;2729;50.056;8.678;2022-12-08T04:45:22;99682.06;;;5.65;100.00
5413;BME280;2729;50.056;8.678;2022-12-08T04:47:48;99680.16;;;5.76;100.00
5413;BME280;2729;50.056;8.678;2022-12-08T04:50:14;99675.78;;;5.80;100.00
5413;BME280;2729;50.056;8.678;2022-12-08T04:52:40;99680.38;;;5.63;100.00
5413;BME280;2729;50.056;8.678;2022-12-08T04:55:06;99671.56;;;5.74;100.00
5413;BME280;2729;50.056;8.678;2022-12-08T04:57:33;99675.06;;;5.70;100.00
5413;BME280;2729;50.056;8.678;2022-12-08T04:59:58;99675.06;;;5.72;100.00
5413;BME280;2729;50.056;8.678;2022-12-08T05:02:24;99671.59;;;5.73;100.00
5413;BME280;2729;50.056;8.678;2022-12-08T05:04:50;99667.31;;;5.70;100.00
5413;BME280;2729;50.056;8.678;2022-12-08T05:07:16;99670.03;;;5.61;100.00
5413;BME280;2729;50.056;8.678;2022-12-08T05:09:42;99664.84;;;5.61;100.00
5413;BME280;2729;50.056;8.678;2022-12-08T05:12:09;99666.63;;;5.59;100.00
5413;BME280;2729;50.056;8.678;2022-12-08T05:14:35;99666.44;;;5.70;100.00
5413;BME280;2729;50.056;8.678;2022-12-08T05:17:01;99663.94;;;5.65;100.00
5413;BME280;2729;50.056;8.678;2022-12-08T05:19:27;99662.41;;;5.52;100.00
5413;BME280;2729;50.056;8.678;2022-12-08T05:21:53;99656.47;;;5.44;100.00
5413;BME280;2729;50.056;8.678;2022-12-08T05:24:19;99662.44;;;5.51;100.00
5413;BME280;2729;50.056;8.678;2022-12-08T05:26:45;99654.53;;;5.60;100.00
5413;BME280;2729;50.056;8.678;2022-12-08T05:29:11;99657.13;;;5.58;100.00
5413;BME280;2729;50.056;8.678;2022-12-08T05:31:37;99657.13;;;5.60;100.00
5413;BME280;2729;50.056;8.678;2022-12-08T05:34:03;99652.69;;;5.68;100.00
5413;BME280;2729;50.056;8.678;2022-12-08T05:36:29;99655.34;;;5.62;100.00
5413;BME280;2729;50.056;8.678;2022-12-08T05:38:56;99652.59;;;5.74;100.00
5413;BME280;2729;50.056;8.678;2022-12-08T05:41:22;99652.81;;;5.59;100.00
5413;BME280;2729;50.056;8.678;2022-12-08T05:43:49;99657.84;;;5.68;100.00
5413;BME280;2729;50.056;8.678;2022-12-08T05:46:15;99646.44;;;5.81;100.00
5413;BME280;2729;50.056;8.678;2022-12-08T05:48:42;99641.31;;;5.78;100.00
5413;BME280;2729;50.056;8.678;2022-12-08T05:51:17;99641.44;;;5.69;100.00
5413;BME280;2729;50.056;8.678;2022-12-08T05:53:45;99638.84;;;5.69;100.00
5413;BME280;2729;50.056;8.678;2022-12-08T05:56:11;99636.41;;;5.60;100.00
5413;BME280;2729;50.056;8.678;2022-12-08T05:58:37;99643.41;;;5.53;100.00
5413;BME280;2729;50.056;8.678;2022-12-08T06:01:03;99643.28;;;5.62;100.00
5413;BME280;2729;50.056;8.678;2022-12-08T06:03:29;99640.81;;;5.55;100.00
5413;BME280;2729;50.056;8.678;2022-12-08T06:05:55;99644.00;;;5.70;100.00
5413;BME280;2729;50.056;8.678;2022-12-08T06:08:21;99643.63;;;5.38;100.00
5413;BME280;2729;50.056;8.678;2022-12-08T06:10:47;99652.91;;;5.53;100.00
5413;BME280;2729;50.056;8.678;2022-12-08T06:13:13;99646.75;;;5.61;100.00
5413;BME280;2729;50.056;8.678;2022-12-08T06:15:40;99646.56;;;5.72;100.00
5413;BME280;2729;50.056;8.678;2022-12-08T06:18:06;99645.84;;;5.64;100.00
5413;BME280;2729;50.056;8.678;2022-12-08T06:20:33;99642.28;;;5.71;100.00
5413;BME280;2729;50.056;8.678;2022-12-08T06:22:59;99645.69;;;5.73;100.00
5413;BME280;2729;50.056;8.678;2022-12-08T06:25:25;99650.06;;;5.69;100.00
5413;BME280;2729;50.056;8.678;2022-12-08T06:27:51;99649.16;;;5.72;100.00
5413;BME280;2729;50.056;8.678;2022-12-08T06:30:17;99648.44;;;5.64;100.00
5413;BME280;2729;50.056;8.678;2022-12-08T06:32:43;99649.13;;;5.73;100.00
5413;BME280;2729;50.056;8.678;2022-12-08T06:35:09;99647.72;;;5.53;100.00
5413;BME280;2729;50.056;8.678;2022-12-08T06:37:35;99653.66;;;5.59;100.00
5413;BME280;2729;50.056;8.678;2022-12-08T06:40:02;99656.19;;;5.64;100.00
5413;BME280;2729;50.056;8.678;2022-12-08T06:42:28;99658.63;;;5.74;100.00
5413;BME280;2729;50.056;8.678;2022-12-08T06:45:11;99662.25;;;5.63;100.00
5413;BME280;2729;50.056;8.678;2022-12-08T06:47:37;99653.75;;;5.53;100.00
5413;BME280;2729;50.056;8.678;2022-12-08T06:50:04;99659.69;;;5.60;100.00
5413;BME280;2729;50.056;8.678;2022-12-08T06:52:30;99660.56;;;5.60;100.00
5413;BME280;2729;50.056;8.678;2022-12-08T06:54:56;99659.03;;;5.47;100.00
5413;BME280;2729;50.056;8.678;2022-12-08T06:57:22;99658.13;;;5.49;100.00
5413;BME280;2729;50.056;8.678;2022-12-08T06:59:49;99655.13;;;5.14;100.00
5413;BME280;2729;50.056;8.678;2022-12-08T07:02:14;99655.56;;;5.48;100.00
5413;BME280;2729;50.056;8.678;2022-12-08T07:04:42;99654.63;;;5.54;100.00
5413;BME280;2729;50.056;8.678;2022-12-08T07:07:08;99645.13;;;5.54;100.00
5413;BME280;2729;50.056;8.678;2022-12-08T07:09:34;99661.75;;;5.36;100.00
5413;BME280;2729;50.056;8.678;2022-12-08T07:12:02;99654.75;;;5.44;100.00
5413;BME280;2729;50.056;8.678;2022-12-08T07:14:28;99657.13;;;5.58;100.00
5413;BME280;2729;50.056;8.678;2022-12-08T07:16:54;99648.56;;;5.55;100.00
5413;BME280;2729;50.056;8.678;2022-12-08T07:19:20;99650.38;;;5.49;100.00
5413;BME280;2729;50.056;8.678;2022-12-08T07:21:46;99656.22;;;5.62;100.00
5413;BME280;2729;50.056;8.678;2022-12-08T07:24:12;99653.69;;;5.58;100.00
5413;BME280;2729;50.056;8.678;2022-12-08T07:26:39;99656.50;;;5.42;100.00
5413;BME280;2729;50.056;8.678;2022-12-08T07:29:05;99652.78;;;5.62;100.00
5413;BME280;2729;50.056;8.678;2022-12-08T07:31:31;99653.00;;;5.45;100.00
5413;BME280;2729;50.056;8.678;2022-12-08T07:33:57;99651.91;;;5.61;100.00
5413;BME280;2729;50.056;8.678;2022-12-08T07:36:24;99646.72;;;5.63;100.00
5413;BME280;2729;50.056;8.678;2022-12-08T07:38:50;99650.75;;;5.19;100.00
5413;BME280;2729;50.056;8.678;2022-12-08T07:41:19;99649.91;;;5.17;100.00
5413;BME280;2729;50.056;8.678;2022-12-08T07:43:46;99653.28;;;5.25;100.00
5413;BME280;2729;50.056;8.678;2022-12-08T07:46:14;99652.38;;;5.29;100.00
5413;BME280;2729;50.056;8.678;2022-12-08T07:48:41;99649.63;;;5.41;100.00
5413;BME280;2729;50.056;8.678;2022-12-08T07:51:07;99649.75;;;5.31;100.00
5413;BME280;2729;50.056;8.678;2022-12-08T07:53:33;99652.28;;;5.35;100.00
5413;BME280;2729;50.056;8.678;2022-12-08T07:55:59;99655.78;;;5.33;100.00
5413;BME280;2729;50.056;8.678;2022-12-08T07:58:25;99647.13;;;5.34;100.00
5413;BME280;2729;50.056;8.678;2022-12-08T08:00:52;99653.00;;;5.46;100.00
5413;BME280;2729;50.056;8.678;2022-12-08T08:03:18;99649.03;;;5.20;100.00
5413;BME280;2729;50.056;8.678;2022-12-08T08:05:44;99646.22;;;5.38;100.00
5413;BME280;2729;50.056;8.678;2022-12-08T08:08:12;99648.00;;;5.34;100.00
5413;BME280;2729;50.056;8.678;2022-12-08T08:10:38;99647.63;;;5.59;100.00
5413;BME280;2729;50.056;8.678;2022-12-08T08:13:04;99649.34;;;5.60;100.00
5413;BME280;2729;50.056;8.678;2022-12-08T08:15:30;99641.63;;;5.57;100.00
5413;BME280;2729;50.056;8.678;2022-12-08T08:17:56;99654.09;;;5.30;100.00
5413;BME280;2729;50.056;8.678;2022-12-08T08:20:22;99644.34;;;5.47;100.00
5413;BME280;2729;50.056;8.678;2022-12-08T08:22:49;99650.59;;;5.33;100.00
5413;BME280;2729;50.056;8.678;2022-12-08T08:25:16;99656.41;;;5.48;100.00
5413;BME280;2729;50.056;8.678;2022-12-08T08:27:44;99653.00;;;5.46;100.00
5413;BME280;2729;50.056;8.678;2022-12-08T08:30:11;99662.75;;;5.26;100.00
5413;BME280;2729;50.056;8.678;2022-12-08T08:32:37;99654.84;;;5.38;100.00
5413;BME280;2729;50.056;8.678;2022-12-08T08:35:04;99652.81;;;5.59;100.00
5413;BME280;2729;50.056;8.678;2022-12-08T08:37:30;99650.19;;;5.62;100.00
5413;BME280;2729;50.056;8.678;2022-12-08T08:39:56;99647.25;;;5.83;100.00
5413;BME280;2729;50.056;8.678;2022-12-08T08:42:22;99651.53;;;5.86;100.00
5413;BME280;2729;50.056;8.678;2022-12-08T08:44:48;99651.91;;;5.61;100.00
5413;BME280;2729;50.056;8.678;2022-12-08T08:47:14;99654.03;;;5.93;100.00
5413;BME280;2729;50.056;8.678;2022-12-08T08:49:40;99651.56;;;5.84;100.00
5413;BME280;2729;50.056;8.678;2022-12-08T08:52:06;99650.50;;;5.97;100.00
5413;BME280;2729;50.056;8.678;2022-12-08T08:54:32;99655.88;;;5.85;100.00
5413;BME280;2729;50.056;8.678;2022-12-08T08:56:59;99650.56;;;5.94;100.00
5413;BME280;2729;50.056;8.678;2022-12-08T08:59:26;99654.19;;;5.81;100.00
5413;BME280;2729;50.056;8.678;2022-12-08T09:01:53;99652.28;;;5.95;100.00
5413;BME280;2729;50.056;8.678;2022-12-08T09:04:21;99651.41;;;5.96;100.00
5413;BME280;2729;50.056;8.678;2022-12-08T09:06:47;99656.41;;;6.07;100.00
5413;BME280;2729;50.056;8.678;2022-12-08T09:09:14;99649.63;;;6.00;100.00
5413;BME280;2729;50.056;8.678;2022-12-08T09:11:42;99649.53;;;6.04;100.00
5413;BME280;2729;50.056;8.678;2022-12-08T09:14:10;99648.50;;;6.15;100.00
5413;BME280;2729;50.056;8.678;2022-12-08T09:16:37;99645.22;;;6.05;100.00
5413;BME280;2729;50.056;8.678;2022-12-08T09:19:03;99648.56;;;6.10;100.00
5413;BME280;2729;50.056;8.678;2022-12-08T09:21:29;99647.50;;;6.22;100.00
5413;BME280;2729;50.056;8.678;2022-12-08T09:23:56;99638.19;;;6.11;100.00
5413;BME280;2729;50.056;8.678;2022-12-08T09:26:24;99638.75;;;6.29;100.00
5413;BME280;2729;50.056;8.678;2022-12-08T09:28:51;99645.88;;;6.16;100.00
5413;BME280;2729;50.056;8.678;2022-12-08T09:31:19;99645.28;;;6.00;100.00
5413;BME280;2729;50.056;8.678;2022-12-08T09:33:45;99645.81;;;6.21;100.00
5413;BME280;2729;50.056;8.678;2022-12-08T09:36:12;99643.09;;;6.27;100.00
5413;BME280;2729;50.056;8.678;2022-12-08T09:38:38;99637.94;;;6.25;100.00
5413;BME280;2729;50.056;8.678;2022-12-08T09:41:13;99641.41;;;6.26;100.00
5413;BME280;2729;50.056;8.678;2022-12-08T09:43:54;99635.72;;;6.53;100.00
5413;BME280;2729;50.056;8.678;2022-12-08T09:46:25;99633.25;;;6.45;100.00
5413;BME280;2729;50.056;8.678;2022-12-08T09:48:56;99625.69;;;6.80;100.00
5413;BME280;2729;50.056;8.678;2022-12-08T09:51:24;99617.91;;;6.80;100.00
5413;BME280;2729;50.056;8.678;2022-12-08T09:53:54;99627.56;;;6.71;100.00
5413;BME280;2729;50.056;8.678;2022-12-08T09:56:22;99615.41;;;6.75;100.00
5413;BME280;2729;50.056;8.678;2022-12-08T09:58:57;99617.19;;;6.71;100.00
5413;BME280;2729;50.056;8.678;2022-12-08T10:01:30;99613.72;;;6.72;100.00
5413;BME280;2729;50.056;8.678;2022-12-08T10:03:58;99609.38;;;6.30;100.00
5413;BME280;2729;50.056;8.678;2022-12-08T10:06:45;99609.66;;;6.59;100.00
5413;BME280;2729;50.056;8.678;2022-12-08T10:12:13;99596.91;;;6.92;100.00
5413;BME280;2729;50.056;8.678;2022-12-08T10:15:01;99598.47;;;6.99;100.00
5413;BME280;2729;50.056;8.678;2022-12-08T10:17:44;99593.34;;;6.96;100.00
5413;BME280;2729;50.056;8.678;2022-12-08T10:20:22;99596.56;;;7.07;100.00
5413;BME280;2729;50.056;8.678;2022-12-08T10:23:08;99589.78;;;7.01;100.00
5413;BME280;2729;50.056;8.678;2022-12-08T10:25:38;99590.94;;;6.88;100.00
5413;BME280;2729;50.056;8.678;2022-12-08T10:28:07;99594.72;;;7.12;100.00
5413;BME280;2729;50.056;8.678;2022-12-08T10:30:33;99588.09;;;6.99;100.00
5413;BME280;2729;50.056;8.678;2022-12-08T10:32:59;99586.88;;;7.15;100.00
5413;BME280;2729;50.056;8.678;2022-12-08T10:35:41;99593.56;;;7.25;100.00
5413;BME280;2729;50.056;8.678;2022-12-08T10:38:16;99592.19;;;7.09;100.00
5413;BME280;2729;50.056;8.678;2022-12-08T10:40:43;99587.47;;;6.88;100.00
5413;BME280;2729;50.056;8.678;2022-12-08T10:43:17;99583.72;;;7.01;100.00
5413;BME280;2729;50.056;8.678;2022-12-08T10:45:45;99584.06;;;7.24;100.00
5413;BME280;2729;50.056;8.678;2022-12-08T10:48:18;99583.28;;;7.21;100.00
5413;BME280;2729;50.056;8.678;2022-12-08T10:50:55;99573.06;;;7.15;100.00
5413;BME280;2729;50.056;8.678;2022-12-08T10:53:27;99576.56;;;6.72;100.00
5413;BME280;2729;50.056;8.678;2022-12-08T10:58:24;99567.72;;;6.82;100.00
5413;BME280;2729;50.056;8.678;2022-12-08T11:00:57;99567.03;;;7.13;100.00
5413;BME280;2729;50.056;8.678;2022-12-08T11:03:34;99563.63;;;7.10;100.00
5413;BME280;2729;50.056;8.678;2022-12-08T11:06:13;99563.00;;;7.38;100.00
5413;BME280;2729;50.056;8.678;2022-12-08T11:08:49;99557.78;;;7.39;100.00
5413;BME280;2729;50.056;8.678;2022-12-08T11:11:16;99555.97;;;7.43;100.00
5413;BME280;2729;50.056;8.678;2022-12-08T11:13:43;99553.44;;;7.40;100.00
5413;BME280;2729;50.056;8.678;2022-12-08T11:16:12;99555.66;;;6.80;100.00
5413;BME280;2729;50.056;8.678;2022-12-08T11:18:42;99551.16;;;7.26;100.00
5413;BME280;2729;50.056;8.678;2022-12-08T11:21:12;99549.84;;;7.08;100.00
5413;BME280;2729;50.056;8.678;2022-12-08T11:23:40;99543.47;;;7.22;100.00
5413;BME280;2729;50.056;8.678;2022-12-08T11:26:14;99539.50;;;7.07;100.00
5413;BME280;2729;50.056;8.678;2022-12-08T11:28:42;99536.94;;;7.42;100.00
5413;BME280;2729;50.056;8.678;2022-12-08T11:31:21;99535.38;;;7.35;100.00
5413;BME280;2729;50.056;8.678;2022-12-08T11:33:50;99535.00;;;7.51;100.00
5413;BME280;2729;50.056;8.678;2022-12-08T11:36:19;99534.03;;;7.19;100.00
5413;BME280;2729;50.056;8.678;2022-12-08T11:38:47;99527.91;;;7.57;100.00
5413;BME280;2729;50.056;8.678;2022-12-08T11:41:19;99523.38;;;7.65;100.00
5413;BME280;2729;50.056;8.678;2022-12-08T11:44:22;99518.72;;;7.78;100.00
5413;BME280;2729;50.056;8.678;2022-12-08T11:46:54;99524.13;;;7.70;100.00
5413;BME280;2729;50.056;8.678;2022-12-08T11:49:33;99519.50;;;7.48;100.00
5413;BME280;2729;50.056;8.678;2022-12-08T11:52:28;99524.75;;;7.45;100.00
5413;BME280;2729;50.056;8.678;2022-12-08T11:55:35;99520.16;;;7.56;100.00
5413;BME280;2729;50.056;8.678;2022-12-08T11:58:15;99514.00;;;7.60;100.00
5413;BME280;2729;50.056;8.678;2022-12-08T12:00:42;99512.50;;;7.51;100.00
5413;BME280;2729;50.056;8.678;2022-12-08T12:03:24;99509.25;;;7.41;100.00
5413;BME280;2729;50.056;8.678;2022-12-08T12:06:22;99510.41;;;7.65;100.00
5413;BME280;2729;50.056;8.678;2022-12-08T12:09:15;99509.16;;;7.82;100.00
5413;BME280;2729;50.056;8.678;2022-12-08T12:20:18;99505.47;;;7.55;100.00
5413;BME280;2729;50.056;8.678;2022-12-08T12:22:51;99493.75;;;8.06;100.00
5413;BME280;2729;50.056;8.678;2022-12-08T12:25:22;99491.53;;;7.93;100.00
5413;BME280;2729;50.056;8.678;2022-12-08T12:27:50;99491.88;;;7.79;100.00
5413;BME280;2729;50.056;8.678;2022-12-08T12:30:22;99487.63;;;7.75;100.00
5413;BME280;2729;50.056;8.678;2022-12-08T12:32:54;99487.72;;;7.72;100.00
5413;BME280;2729;50.056;8.678;2022-12-08T12:35:31;99484.63;;;7.58;100.00
5413;BME280;2729;50.056;8.678;2022-12-08T12:38:07;99485.66;;;7.51;100.00
5413;BME280;2729;50.056;8.678;2022-12-08T12:41:01;99480.16;;;7.63;100.00
5413;BME280;2729;50.056;8.678;2022-12-08T12:43:31;99483.69;;;7.60;100.00
5413;BME280;2729;50.056;8.678;2022-12-08T12:48:50;99480.94;;;7.66;100.00
5413;BME280;2729;50.056;8.678;2022-12-08T12:51:44;99479.41;;;7.59;100.00
5413;BME280;2729;50.056;8.678;2022-12-08T12:54:22;99469.63;;;7.35;100.00
5413;BME280;2729;50.056;8.678;2022-12-08T12:56:53;99468.13;;;7.26;100.00
5413;BME280;2729;50.056;8.678;2022-12-08T13:00:06;99470.25;;;7.09;100.00
5413;BME280;2729;50.056;8.678;2022-12-08T13:05:25;99463.69;;;7.30;100.00
5413;BME280;2729;50.056;8.678;2022-12-08T13:08:01;99466.09;;;7.37;100.00
5413;BME280;2729;50.056;8.678;2022-12-08T13:10:31;99458.75;;;7.55;100.00
5413;BME280;2729;50.056;8.678;2022-12-08T13:13:13;99464.09;;;7.49;100.00
5413;BME280;2729;50.056;8.678;2022-12-08T13:15:50;99465.56;;;7.59;100.00
5413;BME280;2729;50.056;8.678;2022-12-08T13:18:28;99462.72;;;7.68;100.00
5413;BME280;2729;50.056;8.678;2022-12-08T13:21:10;99464.06;;;7.50;100.00
5413;BME280;2729;50.056;8.678;2022-12-08T13:24:11;99459.31;;;7.66;100.00
5413;BME280;2729;50.056;8.678;2022-12-08T13:26:50;99454.03;;;7.69;100.00
5413;BME280;2729;50.056;8.678;2022-12-08T13:29:38;99453.00;;;7.42;100.00
5413;BME280;2729;50.056;8.678;2022-12-08T13:34:43;99448.00;;;7.34;100.00
5413;BME280;2729;50.056;8.678;2022-12-08T13:37:21;99447.97;;;7.36;100.00
5413;BME280;2729;50.056;8.678;2022-12-08T13:40:09;99443.13;;;7.56;100.00
5413;BME280;2729;50.056;8.678;2022-12-08T13:42:45;99444.78;;;7.59;100.00
5413;BME280;2729;50.056;8.678;2022-12-08T13:45:20;99436.41;;;7.48;100.00
5413;BME280;2729;50.056;8.678;2022-12-08T13:47:57;99438.16;;;7.80;100.00
5413;BME280;2729;50.056;8.678;2022-12-08T13:50:33;99434.16;;;8.00;100.00
5413;BME280;2729;50.056;8.678;2022-12-08T13:53:23;99439.50;;;7.62;100.00
5413;BME280;2729;50.056;8.678;2022-12-08T13:55:54;99431.72;;;7.94;100.00
5413;BME280;2729;50.056;8.678;2022-12-08T13:58:28;99429.13;;;7.62;100.00
5413;BME280;2729;50.056;8.678;2022-12-08T14:00:59;99436.09;;;7.60;100.00
5413;BME280;2729;50.056;8.678;2022-12-08T14:03:27;99439.84;;;7.50;100.00
5413;BME280;2729;50.056;8.678;2022-12-08T14:05:53;99444.31;;;7.43;100.00
5413;BME280;2729;50.056;8.678;2022-12-08T14:08:28;99439.78;;;7.17;100.00
5413;BME280;2729;50.056;8.678;2022-12-08T14:11:03;99442.03;;;6.97;100.00
5413;BME280;2729;50.056;8.678;2022-12-08T14:13:30;99443.28;;;7.16;100.00
5413;BME280;2729;50.056;8.678;2022-12-08T14:15:57;99447.31;;;7.28;100.00